Time;durP1;ratioP1;P1;durP2;ratioP2;P2;SDS_P1;SDS_P2;PMS_P1;PMS_P2;Temp;Humidity;BMP_temperature;BMP_pressure;BME280_temperature;BME280_humidity;BME280_pressure;Samples;Min_cycle;Max_cycle;Signal;HPM_P1;HPM_P2
2022/04/12 00:01:40;;;;;;;4.65;2.90;;;11.70;99.90;;;;;;5116909;28;20028;-72
2022/04/12 00:04:06;;;;;;;2.95;2.75;;;11.70;99.90;;;;;;5116856;28;20425;-72
2022/04/12 00:06:33;;;;;;;3.55;3.20;;;11.70;99.90;;;;;;5116904;28;20031;-73
2022/04/12 00:08:59;;;;;;;3.97;3.20;;;11.70;99.90;;;;;;5099794;28;20036;-73
2022/04/12 00:11:25;;;;;;;7.80;3.05;;;11.60;99.90;;;;;;5116796;28;20023;-73
2022/04/12 00:13:51;;;;;;;4.55;3.15;;;11.60;99.90;;;;;;5116751;28;20359;-71
2022/04/12 00:16:17;;;;;;;4.22;2.97;;;11.60;99.90;;;;;;5116682;28;20380;-73
2022/04/12 00:21:27;;;;;;;4.25;3.10;;;11.60;99.90;;;;;;5116674;28;20047;-73
2022/04/12 00:23:53;;;;;;;4.43;2.80;;;11.50;99.90;;;;;;5116764;28;20151;-72
2022/04/12 00:26:19;;;;;;;3.60;2.75;;;11.50;99.90;;;;;;5117257;28;20441;-72
2022/04/12 00:28:45;;;;;;;3.72;2.40;;;11.50;99.90;;;;;;5116571;28;20387;-72
2022/04/12 00:31:11;;;;;;;4.20;2.80;;;11.50;99.90;;;;;;5116470;28;20051;-72
2022/04/12 00:33:37;;;;;;;4.57;3.10;;;11.50;99.90;;;;;;5099648;28;20042;-71
2022/04/12 00:36:04;;;;;;;4.05;2.63;;;11.50;99.90;;;;;;5099505;28;20028;-72
2022/04/12 00:38:33;;;;;;;3.60;2.53;;;11.50;99.90;;;;;;5117270;28;20051;-73
2022/04/12 00:41:00;;;;;;;4.07;2.83;;;11.50;99.90;;;;;;5116322;28;20054;-73
2022/04/12 00:43:33;;;;;;;4.32;2.70;;;11.40;99.90;;;;;;5117149;28;20123;-73
2022/04/12 00:46:02;;;;;;;3.05;2.65;;;11.40;99.90;;;;;;5099444;28;20061;-72
2022/04/12 00:48:29;;;;;;;3.28;2.70;;;11.30;99.90;;;;;;5099517;28;20032;-72
2022/04/12 00:50:55;;;;;;;4.43;2.90;;;11.20;99.90;;;;;;5116479;28;20019;-72
2022/04/12 00:53:22;;;;;;;3.00;2.67;;;11.20;99.90;;;;;;5099435;28;20114;-73
2022/04/12 00:55:48;;;;;;;4.32;2.97;;;11.30;99.90;;;;;;5099340;28;20081;-72
2022/04/12 00:58:14;;;;;;;5.75;2.90;;;11.30;99.90;;;;;;5116511;28;20028;-72
2022/04/12 01:00:40;;;;;;;5.53;2.58;;;11.20;99.90;;;;;;5099734;28;20051;-72
2022/04/12 01:03:06;;;;;;;4.75;2.95;;;11.30;99.90;;;;;;5117092;28;20337;-72
2022/04/12 01:05:32;;;;;;;3.55;2.60;;;11.20;99.90;;;;;;5099252;28;20028;-72
2022/04/12 01:07:58;;;;;;;6.13;2.95;;;11.20;99.90;;;;;;5116329;28;20036;-73
2022/04/12 01:10:24;;;;;;;5.03;2.90;;;11.20;99.90;;;;;;5118684;28;20323;-73
2022/04/12 01:12:52;;;;;;;3.75;2.90;;;11.30;99.90;;;;;;5103150;28;20035;-73
2022/04/12 01:15:22;;;;;;;3.08;2.60;;;11.40;99.90;;;;;;5121286;28;20103;-73
2022/04/12 01:17:49;;;;;;;4.68;2.50;;;11.30;99.90;;;;;;5120818;28;20043;-73
2022/04/12 01:20:18;;;;;;;5.05;2.65;;;11.40;99.90;;;;;;5119884;28;20024;-73
2022/04/12 01:22:59;;;;;;;3.28;2.40;;;11.40;99.90;;;;;;5119978;28;20039;-73
2022/04/12 01:25:26;;;;;;;4.03;2.40;;;11.40;99.90;;;;;;5102766;28;20180;-71
2022/04/12 01:27:52;;;;;;;4.72;2.55;;;11.30;99.90;;;;;;5119848;28;20046;-71
2022/04/12 01:30:18;;;;;;;2.92;2.60;;;11.30;99.90;;;;;;5119774;28;20027;-72
2022/04/12 01:32:44;;;;;;;3.08;2.40;;;11.30;99.90;;;;;;5119722;28;20031;-73
2022/04/12 01:35:10;;;;;;;3.03;2.20;;;11.30;99.90;;;;;;5120480;28;20032;-73
2022/04/12 01:37:36;;;;;;;3.85;2.75;;;11.20;99.90;;;;;;5119589;28;20027;-73
2022/04/12 01:40:03;;;;;;;3.13;2.17;;;11.10;99.90;;;;;;5119530;28;20092;-73
2022/04/12 01:42:29;;;;;;;3.97;2.70;;;11.00;99.90;;;;;;5102651;28;20120;-72
2022/04/12 01:44:55;;;;;;;4.15;2.40;;;11.00;99.90;;;;;;5119499;28;20387;-72
2022/04/12 01:47:21;;;;;;;3.22;2.38;;;11.00;99.90;;;;;;5102562;28;20023;-72
2022/04/12 01:49:47;;;;;;;2.90;2.60;;;10.90;99.90;;;;;;5102504;28;20442;-72
2022/04/12 01:52:15;;;;;;;2.95;2.38;;;10.90;99.90;;;;;;5119434;28;20409;-72
2022/04/12 01:54:41;;;;;;;2.50;2.30;;;10.90;99.90;;;;;;5120112;28;20047;-72
2022/04/12 01:57:07;;;;;;;3.83;2.60;;;11.00;99.90;;;;;;5119965;27;20063;-72
2022/04/12 01:59:33;;;;;;;3.80;2.47;;;11.00;99.90;;;;;;5120010;28;20406;-72
2022/04/12 02:01:59;;;;;;;5.50;2.80;;;11.00;99.90;;;;;;5119141;28;20036;-72
2022/04/12 02:04:24;;;;;;;3.97;2.50;;;10.90;99.90;;;;;;5119634;28;20453;-71
2022/04/12 02:06:50;;;;;;;4.60;2.60;;;10.90;99.90;;;;;;5119053;28;20027;-71
2022/04/12 02:09:16;;;;;;;5.22;2.80;;;10.80;99.90;;;;;;5119057;28;20172;-72
2022/04/12 02:11:42;;;;;;;5.35;2.60;;;10.90;99.90;;;;;;5101833;28;20024;-72
2022/04/12 02:14:08;;;;;;;3.35;2.15;;;10.80;99.90;;;;;;5118998;28;20028;-72
2022/04/12 02:16:34;;;;;;;5.25;2.78;;;10.70;99.90;;;;;;5101812;28;20430;-73
2022/04/12 02:19:00;;;;;;;3.83;2.10;;;10.70;99.90;;;;;;5118808;28;20054;-73
2022/04/12 02:21:26;;;;;;;4.75;2.50;;;10.70;99.90;;;;;;5117801;28;20035;-73
2022/04/12 02:23:51;;;;;;;5.18;2.83;;;10.70;99.90;;;;;;5119371;28;20406;-73
2022/04/12 02:26:17;;;;;;;3.35;2.38;;;10.70;99.90;;;;;;5119372;28;20054;-73
2022/04/12 02:28:46;;;;;;;5.63;2.42;;;10.60;99.90;;;;;;5118796;28;20080;-73
2022/04/12 02:31:12;;;;;;;4.57;2.70;;;10.70;99.90;;;;;;5119247;28;20449;-72
2022/04/12 02:33:38;;;;;;;3.50;2.53;;;10.60;99.90;;;;;;5084781;28;20055;-72
2022/04/12 02:36:04;;;;;;;3.42;2.60;;;10.70;99.90;;;;;;5101416;28;20126;-72
2022/04/12 02:38:30;;;;;;;4.03;2.55;;;10.60;99.90;;;;;;5118538;28;20050;-73
2022/04/12 02:40:56;;;;;;;3.00;2.35;;;10.60;99.90;;;;;;5101139;28;20122;-73
2022/04/12 02:43:22;;;;;;;4.47;2.70;;;10.50;99.90;;;;;;5101390;28;20077;-73
2022/04/12 02:45:48;;;;;;;2.30;2.03;;;10.50;99.90;;;;;;5101130;28;20044;-73
2022/04/12 02:48:14;;;;;;;3.25;2.35;;;10.50;99.90;;;;;;5119007;28;20032;-74
2022/04/12 02:50:40;;;;;;;3.40;2.53;;;10.40;99.90;;;;;;5118959;28;20019;-73
2022/04/12 02:53:06;;;;;;;4.00;2.53;;;10.40;99.90;;;;;;5101226;28;20028;-72
2022/04/12 02:55:32;;;;;;;5.25;2.40;;;10.30;99.90;;;;;;5119345;28;20042;-73
2022/04/12 02:57:58;;;;;;;3.55;2.60;;;10.40;99.90;;;;;;5118016;28;20070;-73
2022/04/12 03:00:24;;;;;;;4.38;2.67;;;10.30;99.90;;;;;;5101038;28;20130;-72
2022/04/12 03:02:49;;;;;;;4.65;2.72;;;10.30;99.90;;;;;;5100909;28;20035;-73
2022/04/12 03:05:15;;;;;;;3.67;2.58;;;10.30;99.90;;;;;;5100813;28;20350;-73
2022/04/12 03:07:41;;;;;;;3.53;2.92;;;10.30;99.90;;;;;;5118677;28;20027;-74
2022/04/12 03:10:07;;;;;;;3.90;3.05;;;10.30;99.90;;;;;;5100913;28;20035;-74
2022/04/12 03:12:33;;;;;;;4.88;3.00;;;10.30;99.90;;;;;;5101044;28;20386;-74
2022/04/12 03:14:59;;;;;;;3.15;2.85;;;10.30;99.90;;;;;;5100803;28;20058;-74
2022/04/12 03:17:25;;;;;;;4.20;2.63;;;10.30;99.90;;;;;;5118414;28;20050;-74
2022/04/12 03:19:51;;;;;;;4.53;3.00;;;10.30;99.90;;;;;;5100683;28;20114;-73
2022/04/12 03:22:17;;;;;;;3.97;2.60;;;10.40;99.90;;;;;;5118235;28;20031;-73
2022/04/12 03:24:45;;;;;;;4.13;2.63;;;10.30;99.90;;;;;;5118124;28;20039;-74
2022/04/12 03:27:11;;;;;;;3.00;2.55;;;10.20;99.90;;;;;;5100799;28;20114;-71
2022/04/12 03:29:36;;;;;;;3.20;2.85;;;10.30;99.90;;;;;;5117667;28;20043;-72
2022/04/12 03:32:03;;;;;;;3.15;2.80;;;10.30;99.90;;;;;;5117394;28;20034;-72
2022/04/12 03:34:28;;;;;;;3.33;3.03;;;10.20;99.90;;;;;;5117337;28;20047;-72
2022/04/12 03:36:54;;;;;;;4.38;2.58;;;10.20;99.90;;;;;;5100541;28;20043;-71
2022/04/12 03:39:21;;;;;;;4.30;3.00;;;10.20;99.90;;;;;;5118031;28;20318;-71
2022/04/12 03:41:48;;;;;;;3.92;2.70;;;10.20;99.90;;;;;;5100246;28;20047;-72
2022/04/12 03:44:15;;;;;;;6.13;2.80;;;10.20;99.90;;;;;;5117807;28;20131;-72
2022/04/12 03:46:41;;;;;;;3.28;2.83;;;10.20;99.90;;;;;;5117096;28;20020;-72
2022/04/12 03:49:07;;;;;;;3.00;2.70;;;10.10;99.90;;;;;;5117904;28;20028;-72
2022/04/12 03:51:33;;;;;;;2.92;2.60;;;10.10;99.90;;;;;;5100146;28;20127;-72
2022/04/12 03:53:59;;;;;;;3.17;2.70;;;10.10;99.90;;;;;;5117105;28;20059;-72
2022/04/12 03:56:25;;;;;;;5.57;3.25;;;10.00;99.90;;;;;;5116968;28;20055;-73
2022/04/12 03:58:50;;;;;;;4.32;2.67;;;9.90;99.90;;;;;;5083280;28;20039;-71
2022/04/12 04:01:16;;;;;;;3.20;2.90;;;9.90;99.90;;;;;;5117516;28;20024;-72
2022/04/12 04:03:42;;;;;;;2.90;2.60;;;9.90;99.90;;;;;;5100101;28;20063;-74
2022/04/12 04:06:08;;;;;;;4.05;3.15;;;9.90;99.90;;;;;;5117771;28;20038;-75
2022/04/12 04:08:34;;;;;;;3.75;2.95;;;9.80;99.90;;;;;;5117272;28;20069;-75
2022/04/12 04:10:59;;;;;;;5.47;3.25;;;9.80;99.90;;;;;;5117498;28;20073;-75
2022/04/12 04:13:29;;;;;;;4.15;3.10;;;9.80;99.90;;;;;;5117448;28;20042;-75
2022/04/12 04:15:56;;;;;;;3.97;3.20;;;9.70;99.90;;;;;;5117020;28;20382;-74
2022/04/12 04:18:22;;;;;;;6.35;3.08;;;9.70;99.90;;;;;;5116760;28;20032;-75
2022/04/12 04:20:48;;;;;;;3.85;3.10;;;9.70;99.90;;;;;;5117472;28;20115;-75
2022/04/12 04:23:14;;;;;;;4.60;3.08;;;9.70;99.90;;;;;;5117455;28;20347;-76
2022/04/12 04:25:40;;;;;;;4.93;2.95;;;9.70;99.90;;;;;;5099556;28;20088;-76
2022/04/12 04:28:10;;;;;;;5.97;2.90;;;9.70;99.90;;;;;;5099985;28;20035;-76
2022/04/12 04:30:38;;;;;;;5.10;2.70;;;9.70;99.90;;;;;;5100655;28;20111;-73
2022/04/12 04:33:07;;;;;;;5.13;3.53;;;9.60;99.90;;;;;;5117387;28;20398;-75
2022/04/12 04:35:33;;;;;;;7.47;3.97;;;9.60;99.90;;;;;;5116554;28;20054;-75
2022/04/12 04:37:59;;;;;;;5.72;3.35;;;9.60;99.90;;;;;;5116594;28;20034;-75
2022/04/12 04:40:25;;;;;;;5.20;3.10;;;9.70;99.90;;;;;;5117309;28;20119;-76
2022/04/12 04:42:52;;;;;;;3.50;3.20;;;9.60;99.90;;;;;;5116406;28;20127;-76
2022/04/12 04:45:18;;;;;;;3.88;3.20;;;9.60;99.90;;;;;;5119068;28;20387;-76
2022/04/12 04:47:58;;;;;;;3.92;3.13;;;9.60;99.90;;;;;;5121009;28;20312;-76
2022/04/12 04:50:26;;;;;;;4.32;2.83;;;9.60;99.90;;;;;;5104171;28;20046;-76
2022/04/12 04:52:52;;;;;;;4.03;3.05;;;9.60;99.90;;;;;;5120935;28;20031;-76
2022/04/12 04:55:19;;;;;;;5.18;3.30;;;9.60;99.90;;;;;;5121149;28;20028;-76
2022/04/12 04:57:47;;;;;;;4.05;3.05;;;9.50;99.90;;;;;;5120575;28;20032;-76
2022/04/12 05:00:18;;;;;;;5.18;3.17;;;9.50;99.90;;;;;;5120705;28;20110;-76
2022/04/12 05:02:48;;;;;;;5.55;3.40;;;9.50;99.90;;;;;;5120538;28;20522;-75
2022/04/12 05:05:15;;;;;;;3.80;3.25;;;9.50;99.90;;;;;;5121281;28;20070;-75
2022/04/12 05:07:42;;;;;;;5.43;3.05;;;9.60;99.90;;;;;;5120424;28;20402;-75
2022/04/12 05:10:11;;;;;;;5.18;3.08;;;9.60;99.90;;;;;;5120845;28;20118;-75
2022/04/12 05:12:37;;;;;;;3.58;3.28;;;9.70;99.90;;;;;;5103123;28;20032;-76
2022/04/12 05:15:03;;;;;;;4.30;3.05;;;9.60;99.90;;;;;;5120746;28;20110;-76
2022/04/12 05:17:29;;;;;;;3.33;2.95;;;9.70;99.90;;;;;;5120903;28;20466;-76
2022/04/12 05:19:58;;;;;;;4.72;3.08;;;9.70;99.90;;;;;;5120125;28;20103;-76
2022/04/12 05:22:25;;;;;;;3.85;2.72;;;9.70;99.90;;;;;;5120882;28;20031;-76
2022/04/12 05:24:51;;;;;;;4.97;3.30;;;9.70;99.90;;;;;;5120992;28;20039;-77
2022/04/12 05:27:17;;;;;;;4.53;3.33;;;9.80;99.90;;;;;;5120710;28;20107;-76
2022/04/12 05:29:43;;;;;;;5.28;3.50;;;9.80;99.90;;;;;;5103020;28;20118;-76
2022/04/12 05:32:09;;;;;;;4.88;2.90;;;9.90;99.90;;;;;;5120087;28;20103;-76
2022/04/12 05:34:46;;;;;;;6.13;3.45;;;9.90;99.90;;;;;;5103125;28;20032;-74
2022/04/12 05:37:12;;;;;;;4.18;3.20;;;9.90;99.90;;;;;;5119641;28;20046;-74
2022/04/12 05:39:37;;;;;;;6.25;3.35;;;9.90;99.90;;;;;;5102725;28;20115;-73
2022/04/12 05:42:03;;;;;;;4.57;3.03;;;9.90;99.90;;;;;;5119611;28;20052;-73
2022/04/12 05:44:33;;;;;;;4.78;3.08;;;10.00;99.90;;;;;;5120211;28;20039;-74
2022/04/12 05:47:00;;;;;;;4.25;3.28;;;10.00;99.90;;;;;;5103012;28;20436;-73
2022/04/12 05:49:27;;;;;;;5.70;3.28;;;10.00;99.90;;;;;;5120018;28;20080;-73
2022/04/12 05:51:52;;;;;;;6.60;3.70;;;10.10;99.90;;;;;;5086085;28;20387;-75
2022/04/12 05:54:18;;;;;;;4.80;2.88;;;10.10;99.90;;;;;;5119431;28;20101;-74
2022/04/12 05:56:44;;;;;;;4.28;3.13;;;10.20;99.90;;;;;;5118602;28;20105;-73
2022/04/12 05:59:10;;;;;;;4.72;2.90;;;10.30;99.90;;;;;;5119191;28;20035;-72
2022/04/12 06:01:36;;;;;;;4.22;3.10;;;10.30;99.90;;;;;;5119139;28;20035;-72
2022/04/12 06:04:02;;;;;;;5.60;3.28;;;10.30;99.90;;;;;;5119181;28;20032;-72
2022/04/12 06:06:28;;;;;;;6.47;3.53;;;10.20;99.90;;;;;;5119871;28;20036;-72
2022/04/12 06:08:54;;;;;;;5.18;3.58;;;10.40;99.90;;;;;;5119169;28;20422;-71
2022/04/12 06:11:20;;;;;;;3.10;2.80;;;10.50;99.90;;;;;;5102040;28;20426;-72
2022/04/12 06:13:45;;;;;;;3.03;2.78;;;10.60;99.90;;;;;;5102023;28;20028;-73
2022/04/12 06:16:11;;;;;;;3.83;2.92;;;10.70;99.90;;;;;;5120017;28;20032;-73
2022/04/12 06:18:38;;;;;;;4.95;3.20;;;10.80;99.90;;;;;;5118952;28;20108;-72
2022/04/12 06:21:04;;;;;;;4.10;2.83;;;10.80;99.90;;;;;;5118891;28;20119;-73
2022/04/12 06:23:29;;;;;;;4.68;3.10;;;10.90;99.90;;;;;;5118861;28;20063;-74
2022/04/12 06:25:55;;;;;;;4.28;2.92;;;11.00;99.90;;;;;;5118570;28;20047;-74
2022/04/12 06:28:21;;;;;;;4.57;2.70;;;11.00;99.90;;;;;;5118632;28;20398;-72
2022/04/12 06:30:50;;;;;;;7.55;2.97;;;11.20;99.90;;;;;;5101272;28;20028;-71
2022/04/12 06:33:16;;;;;;;6.07;2.80;;;11.20;99.90;;;;;;5119150;28;20467;-71
2022/04/12 06:35:42;;;;;;;5.15;3.00;;;11.40;99.90;;;;;;5119058;28;20058;-73
2022/04/12 06:38:09;;;;;;;5.13;2.90;;;11.40;99.90;;;;;;5101670;28;20031;-73
2022/04/12 06:40:35;;;;;;;5.70;2.88;;;11.50;99.90;;;;;;5119067;28;20040;-73
2022/04/12 06:43:02;;;;;;;4.20;2.75;;;11.70;99.90;;;;;;5100942;28;20112;-71
2022/04/12 06:45:28;;;;;;;4.00;2.70;;;11.70;99.90;;;;;;5118435;28;20047;-73
2022/04/12 06:47:56;;;;;;;4.70;2.70;;;11.70;99.90;;;;;;5101066;28;20031;-66
2022/04/12 06:50:23;;;;;;;5.70;2.72;;;11.70;99.90;;;;;;5118854;28;20027;-71
2022/04/12 06:52:50;;;;;;;7.00;3.10;;;12.00;99.90;;;;;;5118081;28;20376;-71
2022/04/12 06:55:16;;;;;;;7.80;2.97;;;12.10;99.90;;;;;;5117873;28;20173;-70
2022/04/12 06:57:42;;;;;;;4.88;2.72;;;12.20;99.90;;;;;;5100926;28;20114;-71
2022/04/12 07:00:09;;;;;;;5.03;3.10;;;12.20;99.90;;;;;;5118553;28;20036;-71
2022/04/12 07:02:35;;;;;;;4.72;2.90;;;12.30;99.90;;;;;;5100101;28;20036;-71
2022/04/12 07:05:02;;;;;;;4.53;3.08;;;12.40;99.90;;;;;;5118274;28;20388;-72
2022/04/12 07:07:28;;;;;;;5.22;2.55;;;12.50;99.90;;;;;;5117370;28;20160;-74
2022/04/12 07:09:55;;;;;;;5.30;2.90;;;12.50;99.90;;;;;;5118551;28;20301;-71
2022/04/12 07:12:21;;;;;;;5.22;2.78;;;12.40;99.90;;;;;;5118241;28;20023;-71
2022/04/12 07:14:47;;;;;;;4.40;3.00;;;12.40;99.90;;;;;;5100753;28;20313;-72
2022/04/12 07:17:13;;;;;;;4.93;3.10;;;12.30;99.90;;;;;;5117388;28;20122;-73
2022/04/12 07:19:38;;;;;;;4.43;2.60;;;12.50;99.90;;;;;;5100592;28;20032;-72
2022/04/12 07:22:05;;;;;;;3.10;2.55;;;12.70;99.90;;;;;;5118277;28;20127;-70
2022/04/12 07:24:31;;;;;;;4.32;2.90;;;12.60;99.90;;;;;;5117588;28;20051;-72
2022/04/12 07:26:57;;;;;;;3.63;2.63;;;12.60;99.90;;;;;;5118338;28;20064;-73
2022/04/12 07:29:23;;;;;;;4.10;2.85;;;12.60;99.90;;;;;;5100485;28;20047;-72
2022/04/12 07:31:48;;;;;;;6.55;3.03;;;12.70;99.90;;;;;;5118487;28;20063;-73
2022/04/12 07:34:14;;;;;;;4.63;3.03;;;12.90;99.90;;;;;;5100201;28;20036;-71
2022/04/12 07:36:47;;;;;;;3.80;2.83;;;12.90;99.90;;;;;;5100200;28;20130;-71
2022/04/12 07:39:16;;;;;;;4.20;2.97;;;12.90;99.90;;;;;;5117337;28;20063;-70
2022/04/12 07:41:42;;;;;;;3.92;2.78;;;12.90;99.90;;;;;;5100174;28;20023;-71
2022/04/12 07:44:08;;;;;;;5.10;2.90;;;13.10;99.90;;;;;;5100222;28;20050;-72
2022/04/12 07:46:35;;;;;;;4.97;2.75;;;13.10;99.90;;;;;;5100008;28;20099;-71
2022/04/12 07:49:01;;;;;;;5.97;2.83;;;13.20;99.90;;;;;;5083251;28;20081;-73
2022/04/12 07:51:27;;;;;;;4.25;2.70;;;13.40;99.90;;;;;;5100500;28;20069;-71
2022/04/12 07:53:53;;;;;;;6.45;2.70;;;13.50;99.90;;;;;;5099990;28;20445;-73
2022/04/12 07:56:19;;;;;;;5.57;2.60;;;13.60;99.90;;;;;;5099947;28;20468;-71
2022/04/12 07:58:44;;;;;;;3.35;2.25;;;13.70;99.90;;;;;;5099881;28;20062;-71
2022/04/12 08:01:10;;;;;;;5.00;2.72;;;13.60;99.90;;;;;;5116845;28;20023;-72
2022/04/12 08:03:36;;;;;;;5.80;2.97;;;13.70;99.90;;;;;;5116806;28;20042;-65
2022/04/12 08:06:02;;;;;;;3.72;2.25;;;13.80;99.90;;;;;;5099930;28;20027;-71
2022/04/12 08:08:29;;;;;;;4.65;2.40;;;13.90;99.90;;;;;;5116786;28;20020;-71
2022/04/12 08:10:55;;;;;;;7.30;3.10;;;14.10;99.90;;;;;;5117423;28;20031;-72
2022/04/12 08:13:21;;;;;;;2.85;2.40;;;14.10;99.90;;;;;;5116821;28;20088;-71
2022/04/12 08:15:46;;;;;;;4.10;2.38;;;14.20;99.90;;;;;;5116781;28;20091;-72
2022/04/12 08:18:13;;;;;;;5.60;2.70;;;14.30;99.90;;;;;;5116721;28;20338;-71
2022/04/12 08:20:38;;;;;;;4.07;2.50;;;14.40;99.90;;;;;;5098804;28;20326;-72
2022/04/12 08:23:04;;;;;;;6.10;2.33;;;14.50;99.90;;;;;;5116686;28;20042;-71
2022/04/12 08:25:30;;;;;;;4.70;2.60;;;14.60;99.90;;;;;;5116336;28;20032;-72
2022/04/12 08:27:56;;;;;;;4.28;2.50;;;14.70;99.90;;;;;;5116586;28;20042;-72
2022/04/12 08:30:22;;;;;;;3.53;2.40;;;14.70;99.90;;;;;;5099743;28;20111;-70
2022/04/12 08:32:48;;;;;;;6.07;2.75;;;14.60;99.90;;;;;;5099655;28;20032;-70
2022/04/12 08:35:14;;;;;;;3.78;2.30;;;14.70;99.90;;;;;;5099892;28;20047;-71
2022/04/12 08:37:40;;;;;;;4.65;2.75;;;14.80;99.90;;;;;;5116849;28;20035;-71
2022/04/12 08:40:06;;;;;;;5.13;2.58;;;14.90;99.90;;;;;;5116468;28;20039;-72
2022/04/12 08:42:32;;;;;;;4.18;2.42;;;15.00;99.90;;;;;;5116122;28;20040;-72
2022/04/12 08:45:01;;;;;;;4.55;2.20;;;15.10;99.90;;;;;;5116413;28;20129;-71
2022/04/12 08:47:28;;;;;;;3.90;2.13;;;15.10;99.90;;;;;;5116923;28;20024;-72
2022/04/12 08:49:55;;;;;;;4.38;2.20;;;15.20;99.90;;;;;;5117724;28;20114;-72
2022/04/12 08:52:23;;;;;;;3.55;2.35;;;15.30;99.90;;;;;;5116253;28;20035;-72
2022/04/12 08:54:49;;;;;;;2.97;2.05;;;15.30;99.90;;;;;;5116927;28;20344;-71
2022/04/12 08:57:15;;;;;;;3.25;2.00;;;15.40;99.90;;;;;;5116278;28;20115;-72
2022/04/12 08:59:41;;;;;;;6.78;2.47;;;15.50;99.90;;;;;;5099167;28;20075;-72
2022/04/12 09:02:09;;;;;;;4.10;1.98;;;15.60;99.90;;;;;;5116504;28;20080;-71
2022/04/12 09:04:35;;;;;;;3.20;1.92;;;15.60;99.90;;;;;;5116881;28;20366;-71
2022/04/12 09:07:01;;;;;;;5.40;2.13;;;15.60;99.90;;;;;;5117148;28;20031;-72
2022/04/12 09:09:31;;;;;;;5.32;2.13;;;15.80;99.90;;;;;;5099147;28;20028;-72
2022/04/12 09:12:02;;;;;;;5.65;2.10;;;16.00;99.90;;;;;;5116010;28;20019;-70
2022/04/12 09:14:37;;;;;;;7.60;2.55;;;16.10;99.90;;;;;;5116136;28;20035;-71
2022/04/12 09:17:05;;;;;;;3.33;1.85;;;16.20;99.90;;;;;;5116781;28;20383;-71
2022/04/12 09:19:48;;;;;;;3.92;2.00;;;16.40;99.90;;;;;;5115890;28;20291;-71
2022/04/12 09:22:25;;;;;;;4.80;1.98;;;16.80;99.90;;;;;;5115902;28;20391;-72
2022/04/12 09:24:53;;;;;;;4.53;1.95;;;17.10;99.90;;;;;;5117087;28;20097;-71
2022/04/12 09:27:25;;;;;;;3.72;1.92;;;17.30;99.90;;;;;;5116624;28;20039;-71
2022/04/12 09:30:01;;;;;;;4.70;2.10;;;17.50;99.90;;;;;;5115836;28;20035;-71
2022/04/12 09:32:29;;;;;;;3.20;1.80;;;17.90;99.90;;;;;;5119319;28;20034;-70
2022/04/12 09:34:56;;;;;;;2.80;1.98;;;18.10;99.90;;;;;;5102969;28;20081;-71
2022/04/12 09:37:25;;;;;;;3.03;1.92;;;18.50;99.90;;;;;;5119653;28;20107;-72
2022/04/12 09:40:01;;;;;;;5.18;2.05;;;18.90;99.90;;;;;;5120287;28;20034;-71
2022/04/12 09:42:45;;;;;;;5.63;1.85;;;19.00;99.90;;;;;;5119080;28;20349;-71
2022/04/12 09:45:15;;;;;;;4.50;1.88;;;19.20;99.90;;;;;;5119314;28;20031;-71
2022/04/12 09:47:42;;;;;;;3.35;1.90;;;19.00;99.90;;;;;;5119461;28;20399;-72
2022/04/12 09:50:09;;;;;;;6.00;2.40;;;19.20;99.90;;;;;;5102505;28;20022;-71
2022/04/12 09:52:36;;;;;;;4.68;1.90;;;18.80;99.90;;;;;;5119225;28;20050;-72
2022/04/12 09:55:02;;;;;;;3.97;2.38;;;18.60;99.90;;;;;;5119365;28;20038;-72
2022/04/12 09:57:28;;;;;;;6.40;2.20;;;18.10;99.90;;;;;;5119299;28;20313;-72
2022/04/12 09:59:58;;;;;;;3.85;2.17;;;18.10;99.90;;;;;;5118975;28;20110;-71
2022/04/12 10:02:25;;;;;;;4.00;2.30;;;18.30;99.90;;;;;;5119132;28;20139;-71
2022/04/12 10:04:52;;;;;;;5.25;2.10;;;18.40;99.90;;;;;;5102049;28;20399;-71
2022/04/12 10:07:20;;;;;;;2.67;1.77;;;18.50;99.90;;;;;;5119824;28;20019;-71
2022/04/12 10:09:48;;;;;;;5.93;2.42;;;18.40;99.90;;;;;;5101874;28;20031;-67
2022/04/12 10:12:15;;;;;;;5.05;1.73;;;18.40;99.90;;;;;;5102199;28;20122;-72
2022/04/12 10:14:42;;;;;;;3.80;2.00;;;18.50;99.90;;;;;;5118986;28;20080;-71
2022/04/12 10:17:08;;;;;;;3.30;1.58;;;18.60;99.90;;;;;;5101845;28;20390;-71
2022/04/12 10:19:35;;;;;;;4.25;2.00;;;18.80;99.90;;;;;;5101839;28;20134;-72
2022/04/12 10:22:03;;;;;;;7.70;1.85;;;19.00;99.90;;;;;;5119548;28;20031;-72
2022/04/12 10:24:30;;;;;;;6.30;1.60;;;19.10;99.90;;;;;;5101726;28;20202;-71
2022/04/12 10:26:56;;;;;;;6.78;1.80;;;19.10;99.90;;;;;;5101887;28;20287;-72
2022/04/12 10:29:23;;;;;;;3.70;1.90;;;19.00;99.90;;;;;;5118623;28;20031;-68
2022/04/12 10:31:59;;;;;;;4.60;2.08;;;18.90;99.90;;;;;;5118428;28;20020;-71
2022/04/12 10:34:25;;;;;;;3.22;1.50;;;19.10;99.90;;;;;;5119326;28;20085;-70
2022/04/12 10:36:56;;;;;;;3.10;1.45;;;19.50;99.90;;;;;;5119258;28;20055;-70
2022/04/12 10:39:29;;;;;;;4.37;1.43;;;19.80;99.90;;;;;;5101546;28;20399;-71
2022/04/12 10:41:57;;;;;;;3.35;1.35;;;20.20;99.90;;;;;;5118324;28;20694;-71
2022/04/12 10:44:25;;;;;;;2.75;1.30;;;20.60;99.90;;;;;;5100655;28;20054;-71
2022/04/12 10:46:51;;;;;;;3.20;1.38;;;21.40;99.90;;;;;;5118925;28;20062;-70
2022/04/12 10:49:19;;;;;;;2.80;1.50;;;22.00;99.90;;;;;;5101188;28;20387;-69
2022/04/12 10:51:46;;;;;;;2.45;1.35;;;21.70;99.90;;;;;;5118812;28;20024;-69
2022/04/12 10:54:29;;;;;;;3.55;1.75;;;22.30;99.90;;;;;;5101355;28;20059;-71
2022/04/12 10:57:17;;;;;;;4.07;1.27;;;23.30;99.90;;;;;;5117981;28;20030;-70
2022/04/12 11:00:04;;;;;;;3.92;1.38;;;23.20;99.80;;;;;;5118886;28;20038;-71
2022/04/12 11:02:35;;;;;;;3.38;1.40;;;22.90;99.90;;;;;;5118164;28;20439;-67
2022/04/12 11:05:02;;;;;;;4.15;1.60;;;23.40;98.10;;;;;;5118262;28;20522;-71
2022/04/12 11:07:33;;;;;;;4.43;1.60;;;22.80;98.30;;;;;;5117907;28;20295;-72
2022/04/12 11:10:25;;;;;;;4.28;1.33;;;22.50;97.80;;;;;;5118480;28;20273;-70
2022/04/12 11:13:04;;;;;;;3.10;1.43;;;22.00;99.20;;;;;;5113959;28;20463;-69
2022/04/12 11:15:31;;;;;;;4.05;1.52;;;21.90;98.90;;;;;;5119005;28;20031;-71
2022/04/12 11:18:14;;;;;;;4.60;1.60;;;22.00;98.80;;;;;;5117702;28;20515;-70
2022/04/12 11:20:48;;;;;;;5.43;1.50;;;23.20;98.00;;;;;;5100718;28;20031;-70
2022/04/12 11:23:15;;;;;;;5.55;2.00;;;23.70;96.80;;;;;;5118362;28;20039;-70
2022/04/12 11:25:48;;;;;;;5.05;2.10;;;23.90;96.30;;;;;;5100559;28;20031;-70
2022/04/12 11:28:15;;;;;;;3.17;1.63;;;23.50;95.90;;;;;;5117482;28;20050;-70
2022/04/12 11:30:52;;;;;;;3.92;1.60;;;23.20;96.40;;;;;;5118149;28;20024;-70
2022/04/12 11:33:18;;;;;;;4.93;1.67;;;23.60;95.70;;;;;;5117515;28;20032;-71
2022/04/12 11:35:44;;;;;;;2.50;1.40;;;23.50;94.80;;;;;;5117421;28;20040;-71
2022/04/12 11:38:10;;;;;;;5.25;1.52;;;23.60;95.40;;;;;;5117787;28;20027;-69
2022/04/12 11:40:42;;;;;;;4.28;1.60;;;23.20;94.80;;;;;;5100348;28;20141;-67
2022/04/12 11:43:25;;;;;;;5.40;1.70;;;22.80;95.20;;;;;;5100093;28;20071;-73
2022/04/12 11:45:57;;;;;;;2.15;1.40;;;22.50;95.60;;;;;;5117197;28;20031;-70
2022/04/12 11:48:31;;;;;;;2.50;1.25;;;23.40;96.50;;;;;;5100294;28;20032;-71
2022/04/12 11:50:58;;;;;;;5.90;1.60;;;25.00;93.90;;;;;;5117057;28;20035;-71
2022/04/12 11:53:25;;;;;;;5.03;1.50;;;24.80;92.70;;;;;;5100090;28;20309;-71
2022/04/12 11:55:57;;;;;;;3.33;1.23;;;24.90;92.20;;;;;;5116931;28;20035;-71
2022/04/12 11:58:26;;;;;;;;;;;24.90;91.00;;;;;;5118417;28;20102;-69
2022/04/12 12:00:52;;;;;;;4.15;1.27;;;24.90;91.20;;;;;;5117677;28;20290;-72
2022/04/12 12:03:18;;;;;;;4.78;1.30;;;23.80;91.00;;;;;;5099893;28;20027;-66
2022/04/12 12:05:47;;;;;;;3.42;1.30;;;22.90;92.60;;;;;;5116937;28;20023;-68
2022/04/12 12:08:19;;;;;;;2.40;1.30;;;23.00;93.20;;;;;;5116928;28;20042;-71
2022/04/12 12:10:45;;;;;;;4.93;1.40;;;23.50;93.10;;;;;;5116837;28;20299;-73
2022/04/12 12:13:13;;;;;;;5.88;1.60;;;23.50;92.20;;;;;;5099806;28;20052;-72
2022/04/12 12:15:39;;;;;;;6.32;1.45;;;23.20;92.50;;;;;;5117372;28;20028;-74
2022/04/12 12:18:07;;;;;;;3.97;1.30;;;23.00;92.20;;;;;;5100389;28;20295;-70
2022/04/12 12:20:35;;;;;;;3.25;1.30;;;22.60;93.80;;;;;;5116808;28;20409;-71
2022/04/12 12:23:03;;;;;;;5.32;1.10;;;22.80;92.90;;;;;;5116691;28;20068;-72
2022/04/12 12:25:43;;;;;;;2.85;1.25;;;23.50;92.80;;;;;;5117931;28;20104;-66
2022/04/12 12:28:26;;;;;;;4.63;1.35;;;23.90;91.50;;;;;;5117416;28;20024;-69
2022/04/12 12:31:03;;;;;;;4.20;1.35;;;24.40;91.30;;;;;;5116583;28;20361;-68
2022/04/12 12:33:56;;;;;;;10.27;1.45;;;25.30;89.90;;;;;;5116595;28;20024;-72
2022/04/12 12:36:24;;;;;;;2.55;1.20;;;24.80;90.30;;;;;;5113937;28;20052;-73
2022/04/12 12:38:51;;;;;;;5.15;1.20;;;25.20;89.50;;;;;;5099522;28;20030;-72
2022/04/12 12:41:31;;;;;;;4.97;1.60;;;25.70;87.80;;;;;;5116576;28;20032;-70
2022/04/12 12:44:00;;;;;;;2.85;1.40;;;25.60;87.60;;;;;;5099423;28;20314;-70
2022/04/12 12:46:33;;;;;;;2.20;1.35;;;26.00;86.00;;;;;;5116454;28;20400;-71
2022/04/12 12:49:18;;;;;;;4.00;1.42;;;27.00;85.90;;;;;;5116408;28;20038;-72
2022/04/12 12:51:44;;;;;;;4.65;1.23;;;28.40;82.60;;;;;;5099375;28;20414;-72
2022/04/12 12:54:15;;;;;;;3.95;1.40;;;29.00;79.00;;;;;;5116302;28;20422;-72